Cape Point, South Africa
Current Conditions -  °F | °C
As of 5:00 PM on Thursday 30 Oct 2014 (Local Time) from FACT Reporting Station
Few Clouds Few Clouds  
Wind Chill: 64°   Ceiling: Unl
Heat Index: 64°   Visibility: 6mi
Dew Point: 41°   Wind: 20mph
Humidity: 42%   Direction: 170°S
Pressure: 30.15"   Gusts: NA
Location:  34.35°S, 18.5°E
Report Text: FACT 301500Z 17017KT 9999 FEW040 18/05 Q1021 NOSIG
Loading
Personal Weather Stations






























Interactive Weather Map
Tropical Storm Tracking
New forecast layout! Learn more

10-Day Weather Forecast

Advertisements
Track Severe Weather on mobile